Accueil
METAR-TAF:

METAR-TAF

Aéroports :

Benson, Angleterre

latitude: 51-37N, longitude: 001-05W, altitude: 63 m

Observation

Le bulletin a été fait il y a 33 minutes, à 08:20 UTC
Vent 1 kt de sud/sud-ouest
Température -1°C
Humidité 100%
Pression 1043 hPa
Visibilité: 0200 m
brouillard givrant

METAR: EGUB 210820Z 20001KT 0200 FZFG VV/// M01/M01 Q1043 NOSIG RMK RED RED

Heure: 08:53 (08:53 UTC)

Prévision

Le bulletin a été fait il y a 1 heure et 26 minutes, à 07:27 UTC
Prévision valable du 21 à 09 UTC au 21 à 18 UTC
Vent 3 kt de direction variable
Visibilité: 0300 m
brouillard givrant
Evoluant progressivement
du 21 à 11 UTC au 21 à 14 UTC
Visibilité: 7000 m
Quelques nuages à une hauteur de 500 ft
brume
Temporairement
du 21 à 14 UTC au 21 à 18 UTC
Visibilité 10 km ou plus

TAF: EGUB 210727Z 2109/2118 VRB03KT 0300 FZFG VV/// BECMG 2111/2114 7000 BR FEW005 TEMPO 2114/2118 9999 NSW

Observations et prévisions météorologiques de plus de 4000 aéroports (messages METAR et TAF).

Les stations disponibles sont représentées par des disques jaunes et rouges sur la carte.

Passer la souris dessus pour voir le nom de la station.

Cliquer dessus pour voir les observations et prévisions météorologiques.

Pour changer de carte: cliquez sur les boutons verts avec une croix noire pour zoomer, sur le bouton vert avec un tiret pour effectuer un zoom arrière, ou sur les flèches vertes pour les cartes adjacentes.


METAR-TAF: